Burdett, Canada
Current Conditions -  °F | °C
As of 9:00 AM on Sunday 21 Dec 2014 (Local Time) from CYXH Reporting Station
Broken Clouds Broken Clouds  
Wind Chill: 29°   Ceiling: 6500
Heat Index: 37°   Visibility: 30mi
Dew Point: 32°   Wind: 13mph
Humidity: 81%   Direction: 210°SSW
Pressure: 29.2"   Gusts: 21mph
Location:  49.82°N, 111.52°W
Report Text: CYXH 211600Z 21011G18KT 30SM BKN065 03/00 A2920 RMK SC7 SLP911
Loading
Personal Weather Stations






























Interactive Weather Map New forecast layout! Learn more

10-Day Weather Forecast

Advertisements
Track Severe Weather on mobile